sensor_id;sensor_type;location;lat;lon;timestamp;temperature;humidity
445;DHT22;209;48.774;9.238;2022-09-09T05:24:26;17.60;1.00
445;DHT22;209;48.774;9.238;2022-09-09T05:27:18;15.30;1.00
445;DHT22;209;48.774;9.238;2022-09-09T05:30:09;15.50;1.00
445;DHT22;209;48.774;9.238;2022-09-09T05:32:56;15.60;1.00
445;DHT22;209;48.774;9.238;2022-09-09T05:35:44;15.60;1.00
445;DHT22;209;48.774;9.238;2022-09-09T05:38:32;15.60;1.00
445;DHT22;209;48.774;9.238;2022-09-09T05:41:20;15.70;1.00
445;DHT22;209;48.774;9.238;2022-09-09T05:44:11;15.80;1.00
445;DHT22;209;48.774;9.238;2022-09-09T05:46:59;15.80;1.00
445;DHT22;209;48.774;9.238;2022-09-09T05:49:46;15.90;1.00
445;DHT22;209;48.774;9.238;2022-09-09T05:52:34;15.90;1.00
445;DHT22;209;48.774;9.238;2022-09-09T05:55:22;16.00;1.00
445;DHT22;209;48.774;9.238;2022-09-09T05:58:11;16.00;1.00
445;DHT22;209;48.774;9.238;2022-09-09T06:01:05;16.00;1.00
445;DHT22;209;48.774;9.238;2022-09-09T06:03:54;16.10;1.00
445;DHT22;209;48.774;9.238;2022-09-09T06:06:43;16.10;1.00
445;DHT22;209;48.774;9.238;2022-09-09T06:09:33;16.10;1.00
445;DHT22;209;48.774;9.238;2022-09-09T06:12:21;16.20;1.00
445;DHT22;209;48.774;9.238;2022-09-09T11:44:52;21.00;1.00
445;DHT22;209;48.774;9.238;2022-09-09T11:47:51;21.10;1.00
445;DHT22;209;48.774;9.238;2022-09-09T11:50:39;21.20;1.00
445;DHT22;209;48.774;9.238;2022-09-09T11:53:26;21.20;1.00
445;DHT22;209;48.774;9.238;2022-09-09T11:56:24;21.10;1.00
445;DHT22;209;48.774;9.238;2022-09-09T11:59:20;21.20;1.00
445;DHT22;209;48.774;9.238;2022-09-09T12:02:13;21.30;1.00
445;DHT22;209;48.774;9.238;2022-09-09T12:05:04;21.30;1.00
445;DHT22;209;48.774;9.238;2022-09-09T12:07:57;21.30;1.00
445;DHT22;209;48.774;9.238;2022-09-09T12:10:55;21.50;1.00
445;DHT22;209;48.774;9.238;2022-09-09T12:13:53;21.60;1.00
445;DHT22;209;48.774;9.238;2022-09-09T12:16:40;21.90;1.00
445;DHT22;209;48.774;9.238;2022-09-09T12:19:35;22.00;1.00
445;DHT22;209;48.774;9.238;2022-09-09T12:22:27;21.90;1.00
445;DHT22;209;48.774;9.238;2022-09-09T12:25:29;21.90;1.00
445;DHT22;209;48.774;9.238;2022-09-09T12:28:20;21.70;1.00
445;DHT22;209;48.774;9.238;2022-09-09T12:31:12;21.50;1.00
445;DHT22;209;48.774;9.238;2022-09-09T12:34:10;21.70;1.00
445;DHT22;209;48.774;9.238;2022-09-09T12:37:03;22.00;1.00
445;DHT22;209;48.774;9.238;2022-09-09T12:39:54;22.00;1.00
445;DHT22;209;48.774;9.238;2022-09-09T12:42:42;22.20;1.00
445;DHT22;209;48.774;9.238;2022-09-09T12:45:31;22.30;1.00
445;DHT22;209;48.774;9.238;2022-09-09T12:48:20;22.50;1.00
445;DHT22;209;48.774;9.238;2022-09-09T12:51:18;22.50;1.00
445;DHT22;209;48.774;9.238;2022-09-09T12:54:14;22.60;1.00
445;DHT22;209;48.774;9.238;2022-09-09T12:57:02;22.80;1.00
445;DHT22;209;48.774;9.238;2022-09-09T12:59:50;22.80;1.00
445;DHT22;209;48.774;9.238;2022-09-09T13:02:46;22.70;1.00
445;DHT22;209;48.774;9.238;2022-09-09T13:05:35;22.70;1.00
445;DHT22;209;48.774;9.238;2022-09-09T13:08:25;23.00;1.00
445;DHT22;209;48.774;9.238;2022-09-09T13:11:21;23.00;1.00
445;DHT22;209;48.774;9.238;2022-09-09T13:14:17;22.90;1.00
445;DHT22;209;48.774;9.238;2022-09-09T13:17:19;22.80;1.00
445;DHT22;209;48.774;9.238;2022-09-09T13:20:16;22.60;1.00
445;DHT22;209;48.774;9.238;2022-09-09T13:23:04;22.50;1.00
445;DHT22;209;48.774;9.238;2022-09-09T13:25:56;22.60;1.00
445;DHT22;209;48.774;9.238;2022-09-09T13:28:45;22.80;1.00
445;DHT22;209;48.774;9.238;2022-09-09T13:31:36;22.90;1.00
445;DHT22;209;48.774;9.238;2022-09-09T13:34:27;23.00;1.00
445;DHT22;209;48.774;9.238;2022-09-09T13:37:22;23.00;1.00
445;DHT22;209;48.774;9.238;2022-09-09T13:40:17;23.20;1.00
445;DHT22;209;48.774;9.238;2022-09-09T17:14:05;23.50;1.00
445;DHT22;209;48.774;9.238;2022-09-09T17:16:53;20.40;1.00
445;DHT22;209;48.774;9.238;2022-09-09T17:19:40;20.20;1.00
445;DHT22;209;48.774;9.238;2022-09-09T17:22:28;20.10;1.00
445;DHT22;209;48.774;9.238;2022-09-09T17:25:15;20.00;1.00
445;DHT22;209;48.774;9.238;2022-09-09T17:28:04;19.90;1.00
445;DHT22;209;48.774;9.238;2022-09-09T17:30:52;19.80;1.00
445;DHT22;209;48.774;9.238;2022-09-09T17:33:41;19.80;1.00
445;DHT22;209;48.774;9.238;2022-09-09T17:36:30;19.70;1.00
445;DHT22;209;48.774;9.238;2022-09-09T17:39:19;19.70;1.00
445;DHT22;209;48.774;9.238;2022-09-09T17:42:06;19.60;1.00
445;DHT22;209;48.774;9.238;2022-09-09T17:44:55;19.60;1.00
445;DHT22;209;48.774;9.238;2022-09-09T17:47:43;19.50;1.00
445;DHT22;209;48.774;9.238;2022-09-09T17:50:30;19.40;1.00
445;DHT22;209;48.774;9.238;2022-09-09T17:53:20;19.40;1.00
445;DHT22;209;48.774;9.238;2022-09-09T17:56:10;19.30;1.00
445;DHT22;209;48.774;9.238;2022-09-09T17:58:58;19.30;1.00
445;DHT22;209;48.774;9.238;2022-09-09T18:01:48;19.30;1.00
445;DHT22;209;48.774;9.238;2022-09-09T18:04:35;19.30;1.00
445;DHT22;209;48.774;9.238;2022-09-09T18:07:24;19.30;1.00
445;DHT22;209;48.774;9.238;2022-09-09T18:10:11;19.20;1.00
445;DHT22;209;48.774;9.238;2022-09-09T18:12:58;19.20;1.00
445;DHT22;209;48.774;9.238;2022-09-09T18:15:47;19.20;1.00
445;DHT22;209;48.774;9.238;2022-09-09T18:18:36;19.20;1.00
445;DHT22;209;48.774;9.238;2022-09-09T18:21:24;19.10;1.00
445;DHT22;209;48.774;9.238;2022-09-09T18:24:13;19.00;1.00
445;DHT22;209;48.774;9.238;2022-09-09T18:27:02;19.00;1.00
445;DHT22;209;48.774;9.238;2022-09-09T18:29:51;19.00;1.00
445;DHT22;209;48.774;9.238;2022-09-09T18:32:41;19.00;1.00
445;DHT22;209;48.774;9.238;2022-09-09T18:35:31;18.80;1.00
445;DHT22;209;48.774;9.238;2022-09-09T18:38:21;18.80;1.00
445;DHT22;209;48.774;9.238;2022-09-09T18:41:14;18.70;1.00
445;DHT22;209;48.774;9.238;2022-09-09T18:44:05;18.70;1.00
445;DHT22;209;48.774;9.238;2022-09-09T18:46:54;18.70;1.00
445;DHT22;209;48.774;9.238;2022-09-09T18:49:42;18.70;1.00
445;DHT22;209;48.774;9.238;2022-09-09T18:52:32;18.70;1.00
445;DHT22;209;48.774;9.238;2022-09-09T18:55:20;18.70;1.00
445;DHT22;209;48.774;9.238;2022-09-09T18:58:07;18.70;1.00
445;DHT22;209;48.774;9.238;2022-09-09T19:00:54;18.70;1.00
445;DHT22;209;48.774;9.238;2022-09-09T19:03:42;18.60;1.00
445;DHT22;209;48.774;9.238;2022-09-09T19:06:31;18.60;1.00
445;DHT22;209;48.774;9.238;2022-09-09T19:09:20;18.60;1.00
445;DHT22;209;48.774;9.238;2022-09-09T19:12:07;18.50;1.00
445;DHT22;209;48.774;9.238;2022-09-09T19:14:54;18.50;1.00
445;DHT22;209;48.774;9.238;2022-09-09T19:17:41;18.50;1.00
445;DHT22;209;48.774;9.238;2022-09-09T19:20:29;18.40;1.00
445;DHT22;209;48.774;9.238;2022-09-09T19:23:16;18.40;1.00
445;DHT22;209;48.774;9.238;2022-09-09T19:26:06;18.30;1.00
445;DHT22;209;48.774;9.238;2022-09-09T19:28:53;18.30;1.00
445;DHT22;209;48.774;9.238;2022-09-09T19:31:41;18.30;1.00
445;DHT22;209;48.774;9.238;2022-09-09T19:34:29;18.30;1.00
445;DHT22;209;48.774;9.238;2022-09-09T19:37:16;18.20;1.00
445;DHT22;209;48.774;9.238;2022-09-09T19:40:05;18.20;1.00
445;DHT22;209;48.774;9.238;2022-09-09T19:42:54;18.20;1.00
445;DHT22;209;48.774;9.238;2022-09-09T19:45:42;18.20;1.00
445;DHT22;209;48.774;9.238;2022-09-09T19:48:29;18.10;1.00
445;DHT22;209;48.774;9.238;2022-09-09T19:51:19;18.00;1.00
445;DHT22;209;48.774;9.238;2022-09-09T19:54:08;17.90;1.00
445;DHT22;209;48.774;9.238;2022-09-09T19:56:56;17.80;1.00
445;DHT22;209;48.774;9.238;2022-09-09T19:59:44;17.70;1.00
445;DHT22;209;48.774;9.238;2022-09-09T20:02:32;17.60;1.00
445;DHT22;209;48.774;9.238;2022-09-09T20:05:19;17.60;1.00
445;DHT22;209;48.774;9.238;2022-09-09T20:08:08;17.50;1.00
445;DHT22;209;48.774;9.238;2022-09-09T20:10:56;17.50;1.00
445;DHT22;209;48.774;9.238;2022-09-09T20:13:44;17.50;1.00
445;DHT22;209;48.774;9.238;2022-09-09T20:16:33;17.40;1.00
445;DHT22;209;48.774;9.238;2022-09-09T20:19:21;17.40;1.00
445;DHT22;209;48.774;9.238;2022-09-09T20:22:09;17.40;1.00
445;DHT22;209;48.774;9.238;2022-09-09T20:24:57;17.40;1.00
445;DHT22;209;48.774;9.238;2022-09-09T20:27:44;17.40;1.00
445;DHT22;209;48.774;9.238;2022-09-09T20:30:31;17.40;1.00
445;DHT22;209;48.774;9.238;2022-09-09T20:33:24;17.40;1.00
445;DHT22;209;48.774;9.238;2022-09-09T20:36:14;17.30;1.00
445;DHT22;209;48.774;9.238;2022-09-09T20:39:04;17.40;1.00
445;DHT22;209;48.774;9.238;2022-09-09T20:41:52;17.30;1.00
445;DHT22;209;48.774;9.238;2022-09-09T20:44:39;17.30;1.00
445;DHT22;209;48.774;9.238;2022-09-09T20:47:27;17.20;1.00
445;DHT22;209;48.774;9.238;2022-09-09T20:50:15;17.10;1.00
445;DHT22;209;48.774;9.238;2022-09-09T20:53:03;17.10;1.00
445;DHT22;209;48.774;9.238;2022-09-09T20:55:51;17.10;1.00
445;DHT22;209;48.774;9.238;2022-09-09T20:58:38;17.10;1.00
445;DHT22;209;48.774;9.238;2022-09-09T21:01:26;17.10;1.00
445;DHT22;209;48.774;9.238;2022-09-09T21:04:14;17.10;1.00
445;DHT22;209;48.774;9.238;2022-09-09T21:07:03;17.10;1.00
445;DHT22;209;48.774;9.238;2022-09-09T21:09:52;17.10;1.00
445;DHT22;209;48.774;9.238;2022-09-09T21:12:42;17.10;1.00
445;DHT22;209;48.774;9.238;2022-09-09T21:15:30;17.10;1.00
445;DHT22;209;48.774;9.238;2022-09-09T21:18:18;17.10;1.00
445;DHT22;209;48.774;9.238;2022-09-09T21:21:06;17.10;1.00
445;DHT22;209;48.774;9.238;2022-09-09T21:23:56;17.00;1.00
445;DHT22;209;48.774;9.238;2022-09-09T21:26:45;17.00;1.00
445;DHT22;209;48.774;9.238;2022-09-09T21:29:34;17.00;1.00
445;DHT22;209;48.774;9.238;2022-09-09T21:32:21;17.00;1.00
445;DHT22;209;48.774;9.238;2022-09-09T21:35:09;16.90;1.00
445;DHT22;209;48.774;9.238;2022-09-09T21:37:58;16.80;1.00
445;DHT22;209;48.774;9.238;2022-09-09T21:40:47;16.80;1.00
445;DHT22;209;48.774;9.238;2022-09-09T21:43:35;16.70;1.00
445;DHT22;209;48.774;9.238;2022-09-09T21:46:23;16.60;1.00
445;DHT22;209;48.774;9.238;2022-09-09T21:49:12;16.60;1.00
445;DHT22;209;48.774;9.238;2022-09-09T21:51:59;16.50;1.00
445;DHT22;209;48.774;9.238;2022-09-09T21:54:48;16.50;1.00
445;DHT22;209;48.774;9.238;2022-09-09T21:57:36;16.40;1.00
445;DHT22;209;48.774;9.238;2022-09-09T22:00:24;16.40;1.00
445;DHT22;209;48.774;9.238;2022-09-09T22:03:12;16.40;1.00
445;DHT22;209;48.774;9.238;2022-09-09T22:06:03;16.50;1.00
445;DHT22;209;48.774;9.238;2022-09-09T22:08:52;16.40;1.00
445;DHT22;209;48.774;9.238;2022-09-09T22:11:40;16.30;1.00
445;DHT22;209;48.774;9.238;2022-09-09T22:14:29;16.30;1.00
445;DHT22;209;48.774;9.238;2022-09-09T22:17:18;16.30;1.00
445;DHT22;209;48.774;9.238;2022-09-09T22:20:06;16.20;1.00
445;DHT22;209;48.774;9.238;2022-09-09T22:22:54;16.30;1.00
445;DHT22;209;48.774;9.238;2022-09-09T22:25:42;16.30;1.00
445;DHT22;209;48.774;9.238;2022-09-09T22:28:29;16.30;1.00
445;DHT22;209;48.774;9.238;2022-09-09T22:31:18;16.20;1.00
445;DHT22;209;48.774;9.238;2022-09-09T22:34:06;16.20;1.00
445;DHT22;209;48.774;9.238;2022-09-09T22:36:53;16.30;1.00
445;DHT22;209;48.774;9.238;2022-09-09T22:39:41;16.50;1.00
445;DHT22;209;48.774;9.238;2022-09-09T22:42:28;16.60;1.00
445;DHT22;209;48.774;9.238;2022-09-09T22:45:16;16.60;1.00
445;DHT22;209;48.774;9.238;2022-09-09T22:48:06;16.70;1.00
445;DHT22;209;48.774;9.238;2022-09-09T22:50:53;16.80;1.00
445;DHT22;209;48.774;9.238;2022-09-09T22:53:46;16.70;1.00
445;DHT22;209;48.774;9.238;2022-09-09T22:56:34;16.70;1.00
445;DHT22;209;48.774;9.238;2022-09-09T22:59:21;16.60;1.00
445;DHT22;209;48.774;9.238;2022-09-09T23:02:09;16.70;1.00
445;DHT22;209;48.774;9.238;2022-09-09T23:04:59;16.70;1.00
445;DHT22;209;48.774;9.238;2022-09-09T23:07:49;16.70;1.00
445;DHT22;209;48.774;9.238;2022-09-09T23:10:39;16.80;1.00
445;DHT22;209;48.774;9.238;2022-09-09T23:13:28;16.80;1.00
445;DHT22;209;48.774;9.238;2022-09-09T23:16:20;16.90;1.00
445;DHT22;209;48.774;9.238;2022-09-09T23:19:09;16.90;1.00
445;DHT22;209;48.774;9.238;2022-09-09T23:21:59;16.90;1.00
445;DHT22;209;48.774;9.238;2022-09-09T23:24:46;16.90;1.00
445;DHT22;209;48.774;9.238;2022-09-09T23:27:34;17.00;1.00
445;DHT22;209;48.774;9.238;2022-09-09T23:30:23;16.90;1.00
445;DHT22;209;48.774;9.238;2022-09-09T23:33:11;17.00;1.00
445;DHT22;209;48.774;9.238;2022-09-09T23:35:59;16.90;1.00
445;DHT22;209;48.774;9.238;2022-09-09T23:38:48;16.80;1.00
445;DHT22;209;48.774;9.238;2022-09-09T23:41:36;16.80;1.00
445;DHT22;209;48.774;9.238;2022-09-09T23:44:25;16.70;1.00
445;DHT22;209;48.774;9.238;2022-09-09T23:47:12;16.60;1.00
445;DHT22;209;48.774;9.238;2022-09-09T23:50:00;16.50;1.00
